Walton, West Virginia
Current Conditions -  °F | °C
As of 10:54 AM on Wednesday 28 Jan 2015 (Local Time) from KCRW Reporting Station
Scattered Clouds Scattered Clouds  
Wind Chill: 23°   Ceiling: Unl
Heat Index: 23°   Visibility: 10mi
Dew Point: 15°   Wind: 0mph
Humidity: 72%   Direction: NA
Pressure: 30.38"   Gusts: NA
Location:  38.64°N, 81.4°W
Report Text: KCRW 281554Z 00000KT 10SM SCT022 SCT200 M05/M09 A3038 RMK AO2 SLP302 T10501094
Loading
Personal Weather Stations






























Interactive Weather Map New forecast layout! Learn more

10-Day Weather Forecast

Advertisements
Track Severe Weather on mobile